Flight Track Log - Related Links

Times and Time Zones

All times are in EDT time to prevent confusion due to time zone crossing. See the TAM3195 flight status page for this flight to view local times or setup timezone preferences in your user account.

Time Position Orientation Groundspeed Altitude Reporting Facility
EDT Latitude Longitude Course Direction KTS MPH feet Rate Location/Type
Fri 01:17:00 PM -21.2676 -41.3628 225° Southwest  Level Estimated
Fri 01:18:00 PM -21.3268 -41.4265 225° Southwest  Level Estimated
Fri 01:19:00 PM -21.3859 -41.4903 225° Southwest  Level Estimated
Fri 01:20:00 PM -21.4451 -41.5542 225° Southwest  Level Estimated
Fri 01:21:00 PM -21.5042 -41.6181 225° Southwest  Level Estimated
Fri 01:22:00 PM -21.5632 -41.6821 225° Southwest  Level Estimated
Fri 01:23:00 PM -21.6223 -41.7461 225° Southwest  Level Estimated
Fri 01:24:00 PM -21.6813 -41.8102 225° Southwest  Level Estimated
Fri 01:25:00 PM -21.7403 -41.8744 225° Southwest  Level Estimated
Fri 01:26:00 PM -21.7993 -41.9385 225° Southwest  Level Estimated
Fri 01:27:00 PM -21.8582 -42.0028 225° Southwest  Level Estimated
Fri 01:28:00 PM -21.9172 -42.0671 225° Southwest  Level Estimated
Fri 01:29:00 PM -21.9761 -42.1314 225° Southwest  Level Estimated
Fri 01:30:00 PM -22.0350 -42.1958 225° Southwest  Level Estimated
Fri 01:31:00 PM -22.0938 -42.2603 225° Southwest  Level Estimated
Fri 01:32:00 PM -22.1526 -42.3247 225° Southwest  Level Estimated
Fri 01:33:00 PM -22.2114 -42.3893 225° Southwest  Level Estimated
Fri 01:34:00 PM -22.2702 -42.4539 225° Southwest  Level Estimated
Fri 01:35:00 PM -22.3290 -42.5186 226° Southwest  Level Estimated
Fri 01:36:00 PM -22.3877 -42.5833 226° Southwest  Level Estimated
Fri 01:37:00 PM -22.4464 -42.6481 226° Southwest  Level Estimated
Fri 01:38:00 PM -22.5051 -42.7129 226° Southwest  Level Estimated
Fri 01:39:00 PM -22.5637 -42.7778 226° Southwest  Level Estimated
Fri 01:40:00 PM -22.6224 -42.8428 226° Southwest  Level Estimated
Fri 01:41:00 PM -22.6810 -42.9077 226° Southwest  Level Estimated
Fri 01:42:00 PM -22.7395 -42.9728 226° Southwest  Level Estimated
Fri 01:43:00 PM -22.7981 -43.0379 226° Southwest  Level Estimated
Fri 01:44:00 PM -22.8566 -43.1031 226° Southwest  Level Estimated
Fri 01:45:00 PM -22.9105 -43.1631 226° Southwest  Level Estimated
Fri 01:46:00 PM -22.9105 -43.1631 250° West  Level Estimated
Fri 01:47:00 PM -22.9105 -43.1631 250° West  Level Estimated
Fri 01:48:00 PM -22.9105 -43.1631 250° West  Level Estimated
Fri 01:49:00 PM -22.9105 -43.1631 250° West  Level Estimated
Fri 01:50:00 PM -22.9105 -43.1631 250° West  Level Estimated
Fri 01:51:00 PM -22.9105 -43.1631 250° West  Level Estimated
Fri 01:52:00 PM -22.9105 -43.1631 250° West  Level Estimated
Fri 01:53:00 PM -22.9105 -43.1631 250° West  Level Estimated
Fri 01:54:00 PM -22.9105 -43.1631 250° West  Level Estimated
Fri 01:55:00 PM -22.9105 -43.1631 250° West  Level Estimated
Fri 01:56:00 PM -22.9105 -43.1631 250° West  Level Estimated
Fri 01:57:00 PM -22.9105 -43.1631 250° West  Level Estimated
Fri 01:58:00 PM -22.9105 -43.1631 250° West  Level Estimated
Fri 01:59:00 PM -22.9105 -43.1631 250° West  Level Estimated
Fri 02:00:00 PM -22.9105 -43.1631 250° West  Level Estimated
Fri 02:01:00 PM -22.9105 -43.1631 250° West  Level Estimated

Login

Don't have an account? Register now (free) for customized features, flight alerts, and more!